Time;durP1;ratioP1;P1;durP2;ratioP2;P2;SDS_P1;SDS_P2;PMS_P1;PMS_P2;Temp;Humidity;BMP_temperature;BMP_pressure;BME280_temperature;BME280_humidity;BME280_pressure;Samples;Min_cycle;Max_cycle;Signal;HPM_P1;HPM_P2
2022/05/08 00:01:35;;;;;;;6.85;2.08;;;18.30;58.50;;;;;;5100846;28;20140;-72
2022/05/08 00:04:02;;;;;;;4.55;2.17;;;17.90;58.10;;;;;;5102046;28;20060;-72
2022/05/08 00:06:28;;;;;;;5.20;2.30;;;18.00;58.30;;;;;;5106834;28;20044;-72
2022/05/08 00:08:55;;;;;;;4.45;2.30;;;17.90;57.90;;;;;;5104792;28;20048;-72
2022/05/08 00:11:23;;;;;;;3.80;2.10;;;18.10;58.10;;;;;;5104536;28;20461;-72
2022/05/08 00:13:50;;;;;;;5.95;2.30;;;18.10;58.10;;;;;;5106481;28;20054;-72
2022/05/08 00:16:17;;;;;;;5.43;2.28;;;18.20;58.10;;;;;;5101049;28;20052;-72
2022/05/08 00:18:44;;;;;;;4.70;2.03;;;17.30;57.90;;;;;;5108022;28;20127;-72
2022/05/08 00:21:10;;;;;;;4.68;1.90;;;18.20;58.30;;;;;;5102573;28;20486;-72
2022/05/08 00:23:37;;;;;;;3.78;1.80;;;18.20;58.40;;;;;;5106585;28;20047;-72
2022/05/08 00:26:07;;;;;;;8.13;2.22;;;18.20;58.30;;;;;;5104399;28;20062;-72
2022/05/08 00:28:35;;;;;;;4.90;2.25;;;18.40;59.20;;;;;;5079878;28;20048;-72
2022/05/08 00:31:02;;;;;;;5.25;2.22;;;17.90;53.30;;;;;;5106282;28;20573;-72
2022/05/08 00:33:30;;;;;;;4.90;2.08;;;18.00;57.80;;;;;;5101894;28;20101;-72
2022/05/08 00:35:56;;;;;;;3.85;1.95;;;18.00;58.10;;;;;;5102781;28;20059;-72
2022/05/08 00:38:23;;;;;;;5.95;2.05;;;17.70;57.80;;;;;;5104234;28;20701;-72
2022/05/08 00:40:50;;;;;;;4.53;2.00;;;17.80;58.00;;;;;;5106172;28;20043;-72
2022/05/08 00:43:28;;;;;;;4.75;2.03;;;17.40;57.60;;;;;;5104556;28;20450;-72
2022/05/08 00:45:56;;;;;;;3.47;2.00;;;17.90;57.80;;;;;;5105115;28;20039;-72
2022/05/08 00:48:23;;;;;;;3.97;2.08;;;17.50;57.80;;;;;;5094644;28;20055;-72
2022/05/08 00:50:50;;;;;;;5.15;1.92;;;17.40;57.60;;;;;;5102165;28;20040;-72
2022/05/08 00:53:17;;;;;;;4.07;2.00;;;17.60;58.20;;;;;;5105622;28;20044;-72
2022/05/08 00:55:44;;;;;;;4.25;2.10;;;17.90;57.90;;;;;;5105054;28;20065;-72
2022/05/08 00:58:11;;;;;;;4.25;1.83;;;;;;;;;;5103956;28;20431;-72
2022/05/08 01:00:37;;;;;;;5.60;1.98;;;17.60;57.90;;;;;;5105118;28;20647;-72
2022/05/08 01:03:06;;;;;;;6.70;2.60;;;17.90;57.90;;;;;;5104691;28;20054;-72
2022/05/08 01:05:32;;;;;;;5.20;1.88;;;17.00;57.60;;;;;;5102622;28;20044;-72
2022/05/08 01:07:59;;;;;;;4.53;2.03;;;17.80;56.30;;;;;;5106835;28;20476;-72
2022/05/08 01:10:26;;;;;;;4.30;2.05;;;17.80;58.00;;;;;;5091842;28;20042;-72
2022/05/08 01:12:53;;;;;;;4.30;2.08;;;17.80;57.90;;;;;;5107677;28;20052;-72
2022/05/08 01:15:20;;;;;;;5.53;1.90;;;17.80;58.10;;;;;;5101952;28;20484;-72
2022/05/08 01:17:47;;;;;;;5.45;2.00;;;17.90;57.90;;;;;;5100910;28;20054;-72
2022/05/08 01:20:15;;;;;;;6.25;2.13;;;17.00;57.70;;;;;;5108082;28;20047;-72
2022/05/08 01:22:44;;;;;;;5.07;1.90;;;17.60;57.90;;;;;;5100800;28;20058;-72
2022/05/08 01:25:11;;;;;;;5.03;2.60;;;17.40;58.10;;;;;;5108781;28;20065;-72
2022/05/08 01:27:37;;;;;;;4.78;1.92;;;18.00;58.10;;;;;;5100837;28;20051;-72
2022/05/08 01:30:05;;;;;;;3.15;1.80;;;17.90;58.10;;;;;;5109768;28;20407;-72
2022/05/08 01:32:32;;;;;;;4.18;1.83;;;17.80;57.90;;;;;;5095223;28;20062;-72
2022/05/08 01:34:59;;;;;;;3.78;1.95;;;17.70;58.30;;;;;;5093453;28;20054;-72
2022/05/08 01:37:25;;;;;;;3.88;2.10;;;17.50;58.00;;;;;;5101167;28;20054;-72
2022/05/08 01:39:53;;;;;;;5.68;2.38;;;16.90;57.70;;;;;;5104510;28;20074;-72
2022/05/08 01:42:20;;;;;;;4.68;1.70;;;17.60;58.10;;;;;;5109793;28;20048;-72
2022/05/08 01:44:47;;;;;;;3.97;2.05;;;18.30;58.30;;;;;;5100457;28;20040;-72
2022/05/08 01:49:58;;;;;;;3.37;1.90;;;17.60;58.00;;;;;;5100445;28;20131;-72
2022/05/08 01:52:25;;;;;;;5.28;1.95;;;17.50;58.00;;;;;;5103256;28;20060;-72
2022/05/08 01:54:53;;;;;;;4.30;2.03;;;17.50;53.10;;;;;;5104289;28;20097;-72
2022/05/08 01:57:20;;;;;;;3.53;1.77;;;17.50;57.80;;;;;;5102017;28;20052;-72
2022/05/08 01:59:47;;;;;;;4.57;1.70;;;17.60;58.00;;;;;;5105776;28;20044;-72
2022/05/08 02:02:15;;;;;;;4.57;1.88;;;;;;;;;;5103065;28;20063;-72
2022/05/08 02:04:41;;;;;;;5.03;1.90;;;18.40;58.60;;;;;;5103702;28;20080;-72
2022/05/08 02:07:08;;;;;;;4.70;1.83;;;17.40;57.70;;;;;;5101764;28;20055;-72
2022/05/08 02:09:35;;;;;;;4.28;1.90;;;17.70;58.40;;;;;;5102991;28;20044;-72
2022/05/08 02:12:03;;;;;;;5.38;2.20;;;17.90;58.30;;;;;;5102751;28;20088;-72
2022/05/08 02:14:30;;;;;;;3.80;1.65;;;18.20;58.20;;;;;;5098059;28;20036;-72
2022/05/08 02:16:57;;;;;;;6.40;2.05;;;17.60;57.90;;;;;;5096549;28;20050;-72
2022/05/08 02:19:23;;;;;;;5.43;2.00;;;17.50;58.10;;;;;;5102433;28;20066;-72
2022/05/08 02:21:50;;;;;;;5.00;1.88;;;16.80;57.60;;;;;;5103170;28;20053;-72
2022/05/08 02:24:17;;;;;;;4.93;1.90;;;17.50;57.80;;;;;;5101303;28;20055;-72
2022/05/08 02:26:43;;;;;;;3.58;1.70;;;18.00;58.20;;;;;;5103148;28;20047;-73
2022/05/08 02:29:11;;;;;;;4.45;1.85;;;17.30;57.90;;;;;;5102935;28;20384;-72
2022/05/08 02:31:38;;;;;;;6.05;2.13;;;18.10;58.40;;;;;;5102786;28;20053;-72
2022/05/08 02:34:05;;;;;;;4.05;1.92;;;17.60;58.40;;;;;;5103928;28;20066;-72
2022/05/08 02:36:31;;;;;;;2.83;1.70;;;17.40;58.20;;;;;;5102828;28;20048;-72
2022/05/08 02:38:58;;;;;;;4.38;1.83;;;16.60;57.30;;;;;;5103984;28;20043;-72
2022/05/08 02:41:25;;;;;;;3.50;1.67;;;17.40;57.80;;;;;;5102511;28;20514;-72
2022/05/08 02:43:51;;;;;;;5.03;1.73;;;16.90;53.50;;;;;;5104635;28;20385;-72
2022/05/08 02:46:20;;;;;;;3.92;1.60;;;17.30;57.80;;;;;;5101797;28;20054;-72
2022/05/08 02:48:46;;;;;;;4.13;1.70;;;16.30;57.60;;;;;;5103288;28;20062;-73
2022/05/08 02:51:13;;;;;;;3.58;1.75;;;17.10;57.80;;;;;;5101315;28;20503;-73
2022/05/08 02:53:40;;;;;;;4.43;1.83;;;17.40;58.10;;;;;;5095596;28;20054;-73
2022/05/08 02:58:50;;;;;;;3.42;1.60;;;17.70;58.20;;;;;;5093068;28;20039;-72
2022/05/08 03:01:17;;;;;;;2.55;1.52;;;17.30;57.70;;;;;;5100714;28;20048;-72
2022/05/08 03:03:45;;;;;;;4.65;1.60;;;17.40;57.90;;;;;;5098908;28;20506;-73
2022/05/08 03:06:13;;;;;;;3.63;1.50;;;;;;;;;;5089260;28;20051;-72
2022/05/08 03:08:39;;;;;;;2.92;1.67;;;17.30;57.90;;;;;;5101453;28;20585;-73
2022/05/08 03:13:50;;;;;;;4.85;1.67;;;17.30;57.80;;;;;;5099032;28;20481;-73
2022/05/08 03:16:18;;;;;;;3.25;1.70;;;17.20;57.80;;;;;;5107162;28;20062;-73
2022/05/08 03:18:46;;;;;;;3.80;2.00;;;17.10;58.00;;;;;;5098793;28;20048;-73
2022/05/08 03:21:13;;;;;;;4.15;1.70;;;17.20;58.10;;;;;;5099767;28;20131;-73
2022/05/08 03:23:40;;;;;;;4.22;1.52;;;17.70;58.10;;;;;;5100530;28;20059;-73
2022/05/08 03:26:07;;;;;;;3.55;1.52;;;16.50;57.80;;;;;;5099279;28;20058;-73
2022/05/08 03:28:33;;;;;;;3.97;1.70;;;17.10;57.70;;;;;;5105661;28;20439;-73
2022/05/08 03:31:00;;;;;;;3.15;1.50;;;17.50;57.90;;;;;;5100895;28;20044;-73
2022/05/08 03:33:27;;;;;;;3.20;1.67;;;17.00;57.50;;;;;;5111440;28;20105;-73
2022/05/08 03:35:55;;;;;;;3.10;1.58;;;16.10;57.10;;;;;;5102702;28;20411;-73
2022/05/08 03:38:22;;;;;;;2.67;1.60;;;17.10;57.80;;;;;;5103840;28;20053;-73
2022/05/08 03:40:48;;;;;;;3.80;1.75;;;17.20;57.70;;;;;;5106340;28;20454;-73
2022/05/08 03:43:15;;;;;;;3.50;1.50;;;17.10;57.70;;;;;;5106236;28;20135;-73
2022/05/08 03:45:43;;;;;;;4.40;1.95;;;17.10;57.80;;;;;;5105943;28;20888;-73
2022/05/08 03:48:10;;;;;;;3.20;1.58;;;16.30;57.40;;;;;;5097492;28;20087;-73
2022/05/08 03:50:37;;;;;;;3.17;1.60;;;17.10;57.80;;;;;;5105996;28;20058;-73
2022/05/08 03:53:05;;;;;;;4.03;1.55;;;17.00;57.70;;;;;;5105262;28;20048;-73
2022/05/08 03:55:31;;;;;;;3.72;1.63;;;16.10;57.20;;;;;;5088694;28;20126;-73
2022/05/08 03:57:58;;;;;;;3.55;1.60;;;16.90;57.60;;;;;;5106055;28;20059;-73
2022/05/08 04:00:25;;;;;;;2.78;1.45;;;17.30;58.10;;;;;;5106989;28;20055;-73
2022/05/08 04:02:51;;;;;;;3.92;1.83;;;17.00;57.70;;;;;;5089071;28;20130;-73
2022/05/08 04:05:18;;;;;;;2.38;1.42;;;16.10;57.10;;;;;;5104124;28;20050;-73
2022/05/08 04:07:45;;;;;;;2.55;1.40;;;16.80;57.60;;;;;;5105388;28;20047;-73
2022/05/08 04:10:13;;;;;;;3.95;1.60;;;16.20;57.30;;;;;;5104645;28;20061;-73
2022/05/08 04:12:42;;;;;;;3.95;1.50;;;16.80;56.30;;;;;;5101317;28;20430;-73
2022/05/08 04:16:15;;;;;;;2.60;1.55;;;16.90;58.10;;;;;;5105700;28;20066;-72
2022/05/08 04:17:57;;;;;;;4.05;1.70;;;16.90;57.90;;;;;;5105276;28;20043;-73
2022/05/08 04:20:23;;;;;;;3.25;1.60;;;17.10;57.90;;;;;;5102753;28;20054;-73
2022/05/08 04:25:36;;;;;;;2.88;1.60;;;16.80;58.00;;;;;;5098374;28;20039;-73
2022/05/08 04:28:03;;;;;;;3.58;1.55;;;16.50;57.50;;;;;;5098478;28;20051;-73
2022/05/08 04:30:29;;;;;;;3.38;1.45;;;16.90;58.10;;;;;;5096690;28;20481;-73
2022/05/08 04:32:56;;;;;;;2.65;1.40;;;17.00;57.90;;;;;;5109184;28;20143;-73
2022/05/08 04:35:23;;;;;;;3.45;1.50;;;16.90;56.40;;;;;;5103813;28;20055;-73
2022/05/08 04:37:50;;;;;;;4.07;1.50;;;;;;;;;;5086202;28;20048;-73
2022/05/08 04:40:17;;;;;;;3.17;1.42;;;;;;;;;;5103172;28;20052;-73
2022/05/08 04:42:45;;;;;;;3.83;1.65;;;16.30;57.20;;;;;;5102160;28;20072;-73
2022/05/08 04:45:12;;;;;;;3.05;1.60;;;17.20;56.50;;;;;;5100350;28;20058;-73
2022/05/08 04:47:39;;;;;;;2.58;1.38;;;16.90;57.10;;;;;;5104949;28;20476;-73
2022/05/08 04:50:07;;;;;;;3.20;1.58;;;17.50;57.80;;;;;;5103104;28;20496;-73
2022/05/08 04:52:33;;;;;;;1.80;1.55;;;16.10;56.60;;;;;;5104834;28;20058;-73
2022/05/08 04:55:03;;;;;;;3.50;1.50;;;17.00;57.30;;;;;;5104597;28;20143;-73
2022/05/08 04:57:30;;;;;;;4.25;1.60;;;;;;;;;;5090429;28;20059;-71
2022/05/08 04:59:58;;;;;;;2.10;1.38;;;17.20;57.40;;;;;;5102717;28;20052;-73
2022/05/08 05:02:24;;;;;;;2.75;1.38;;;17.70;58.00;;;;;;5105370;28;20051;-73
2022/05/08 05:04:51;;;;;;;2.40;1.35;;;16.90;57.50;;;;;;5105868;28;20044;-73
2022/05/08 05:07:18;;;;;;;1.95;1.35;;;16.80;57.50;;;;;;5101298;28;20044;-73
2022/05/08 05:09:44;;;;;;;2.85;1.30;;;16.80;57.60;;;;;;5104616;28;20043;-73
2022/05/08 05:12:12;;;;;;;2.10;1.23;;;16.90;51.70;;;;;;5103729;28;20488;-74
2022/05/08 05:14:39;;;;;;;3.08;1.52;;;16.30;56.90;;;;;;5098232;28;20050;-73
2022/05/08 05:17:07;;;;;;;2.70;1.50;;;16.90;57.30;;;;;;5100747;28;20052;-73
2022/05/08 05:19:34;;;;;;;2.75;1.50;;;;;;;;;;5104090;28;20130;-75
2022/05/08 05:22:01;;;;;;;2.63;1.70;;;16.90;57.30;;;;;;5104523;27;20046;-73
2022/05/08 05:24:27;;;;;;;3.53;1.60;;;16.40;57.10;;;;;;5104133;28;20054;-73
2022/05/08 05:26:54;;;;;;;2.08;1.30;;;17.00;54.10;;;;;;5104143;28;20050;-73
2022/05/08 05:29:21;;;;;;;2.33;1.48;;;17.00;57.20;;;;;;5107077;28;20411;-74
2022/05/08 05:31:47;;;;;;;2.03;1.20;;;17.50;57.70;;;;;;5103774;28;20057;-73
2022/05/08 05:34:15;;;;;;;2.67;1.35;;;16.90;51.50;;;;;;5104041;28;20048;-73
2022/05/08 05:36:42;;;;;;;2.00;1.33;;;17.00;57.20;;;;;;5105086;28;20520;-73
2022/05/08 05:39:09;;;;;;;2.80;1.48;;;17.00;57.40;;;;;;5102952;28;20058;-73
2022/05/08 05:41:35;;;;;;;2.40;1.30;;;16.60;57.20;;;;;;5104633;28;20055;-73
2022/05/08 05:44:02;;;;;;;2.75;1.40;;;17.10;57.30;;;;;;5097947;28;20410;-73
2022/05/08 05:49:14;;;;;;;2.22;1.30;;;17.60;57.90;;;;;;5107010;28;20051;-73
2022/05/08 05:51:41;;;;;;;2.35;1.20;;;17.00;57.50;;;;;;5101172;28;20048;-73
2022/05/08 05:54:07;;;;;;;2.85;1.40;;;17.10;57.10;;;;;;5107317;28;20051;-73
2022/05/08 05:56:34;;;;;;;2.33;1.25;;;;;;;;;;5099995;28;20123;-74
2022/05/08 05:59:01;;;;;;;4.20;1.35;;;16.30;57.00;;;;;;5107934;28;20047;-73
2022/05/08 06:01:28;;;;;;;2.67;1.30;;;16.70;56.90;;;;;;5100315;28;20051;-73
2022/05/08 06:03:55;;;;;;;2.03;1.45;;;16.90;56.90;;;;;;5100098;28;20127;-73
2022/05/08 06:06:23;;;;;;;3.00;1.20;;;18.00;58.00;;;;;;5106667;28;20044;-73
2022/05/08 06:08:49;;;;;;;4.05;1.60;;;18.30;57.10;;;;;;5100055;28;20056;-73
2022/05/08 06:11:16;;;;;;;2.65;1.27;;;18.30;56.70;;;;;;5107858;28;20059;-73
2022/05/08 06:13:43;;;;;;;2.85;1.45;;;17.70;56.60;;;;;;5099860;28;20058;-73
2022/05/08 06:16:10;;;;;;;3.28;1.50;;;17.70;56.30;;;;;;5108094;28;20411;-73
2022/05/08 06:18:44;;;;;;;4.57;1.55;;;17.70;56.20;;;;;;5099146;28;20058;-73
2022/05/08 06:21:10;;;;;;;4.90;1.50;;;18.10;56.30;;;;;;5100450;28;20048;-72
2022/05/08 06:23:38;;;;;;;4.13;1.40;;;18.20;55.80;;;;;;5105060;28;20778;-73
2022/05/08 06:26:05;;;;;;;4.03;1.38;;;17.50;54.90;;;;;;5099874;28;20052;-73
2022/05/08 06:28:32;;;;;;;3.72;1.42;;;18.50;55.20;;;;;;5106573;28;20048;-73
2022/05/08 06:30:59;;;;;;;3.45;1.55;;;18.60;55.10;;;;;;5099409;28;20055;-72
2022/05/08 06:33:26;;;;;;;2.08;1.20;;;18.80;55.40;;;;;;5103672;28;20055;-73
2022/05/08 06:35:54;;;;;;;2.83;1.30;;;18.40;54.70;;;;;;5102160;28;20085;-72
2022/05/08 06:38:20;;;;;;;2.95;1.50;;;18.30;54.80;;;;;;5101347;28;20070;-72
2022/05/08 06:40:48;;;;;;;3.72;1.40;;;18.50;54.80;;;;;;5102601;28;20054;-72
2022/05/08 06:43:15;;;;;;;3.38;1.40;;;18.80;54.70;;;;;;5102461;28;20044;-72
2022/05/08 06:45:42;;;;;;;2.60;1.20;;;18.40;54.30;;;;;;5102902;28;20051;-73
2022/05/08 06:48:09;;;;;;;3.35;1.48;;;18.10;54.60;;;;;;5100793;28;20043;-72
2022/05/08 06:50:36;;;;;;;3.42;1.40;;;18.00;53.70;;;;;;5102822;28;20048;-72
2022/05/08 06:53:04;;;;;;;3.15;1.40;;;18.70;54.90;;;;;;5103398;28;20126;-72
2022/05/08 06:55:31;;;;;;;4.35;1.58;;;18.00;53.80;;;;;;5091274;28;20055;-72
2022/05/08 06:57:59;;;;;;;3.20;1.58;;;18.30;54.50;;;;;;5102614;28;20070;-72
2022/05/08 07:03:10;;;;;;;4.40;1.40;;;18.80;54.90;;;;;;5097579;28;20048;-72
2022/05/08 07:05:40;;;;;;;5.68;1.38;;;19.20;54.60;;;;;;5103133;28;20481;-70
2022/05/08 07:08:07;;;;;;;7.00;1.85;;;18.40;48.90;;;;;;5099258;28;20485;-70
2022/05/08 07:10:33;;;;;;;3.22;1.30;;;18.50;54.10;;;;;;5105774;28;20400;-69
2022/05/08 07:13:02;;;;;;;4.05;1.50;;;18.20;54.00;;;;;;5099192;28;20153;-69
2022/05/08 07:15:28;;;;;;;2.65;1.38;;;18.80;54.30;;;;;;5106052;28;20055;-69
2022/05/08 07:17:55;;;;;;;3.25;1.25;;;18.90;54.40;;;;;;5100231;28;20046;-70
2022/05/08 07:20:23;;;;;;;4.07;1.40;;;18.30;54.10;;;;;;5101029;28;20070;-70
2022/05/08 07:22:50;;;;;;;3.58;1.40;;;19.00;54.20;;;;;;5100296;28;20100;-70
2022/05/08 07:25:16;;;;;;;5.57;1.60;;;19.10;53.60;;;;;;5097128;28;20431;-72
2022/05/08 07:27:43;;;;;;;3.78;1.30;;;19.20;51.30;;;;;;5073187;28;20047;-70
2022/05/08 07:30:12;;;;;;;3.60;1.50;;;19.70;54.10;;;;;;5078305;28;20054;-70
2022/05/08 07:32:39;;;;;;;4.57;1.45;;;19.60;53.30;;;;;;5072544;28;20063;-72
2022/05/08 07:37:51;;;;;;;4.63;1.58;;;19.40;54.50;;;;;;5072680;28;20045;-72
2022/05/08 07:40:18;;;;;;;4.03;1.50;;;19.90;53.50;;;;;;5073160;28;20052;-70
2022/05/08 07:42:44;;;;;;;5.32;1.75;;;20.90;55.30;;;;;;5074971;28;20045;-70
2022/05/08 07:45:12;;;;;;;3.00;1.27;;;19.90;52.70;;;;;;5073582;28;20140;-70
2022/05/08 07:47:40;;;;;;;5.00;1.63;;;19.80;52.60;;;;;;5072158;28;20051;-70
2022/05/08 07:50:08;;;;;;;4.43;1.30;;;20.80;52.90;;;;;;5072052;28;20056;-70
2022/05/08 07:52:37;;;;;;;3.70;1.30;;;20.20;52.60;;;;;;5077647;28;20053;-70
2022/05/08 07:55:05;;;;;;;3.70;1.60;;;20.00;52.00;;;;;;5072900;28;20386;-72
2022/05/08 07:57:32;;;;;;;4.35;1.40;;;19.70;52.00;;;;;;5071836;28;20041;-71
2022/05/08 07:59:59;;;;;;;3.47;1.35;;;19.90;53.30;;;;;;5078838;28;20381;-70
2022/05/08 08:02:27;;;;;;;2.95;1.50;;;20.40;52.40;;;;;;5104790;28;20052;-70
2022/05/08 08:04:54;;;;;;;3.22;1.50;;;20.20;52.00;;;;;;5094291;28;20054;-70
2022/05/08 08:07:20;;;;;;;3.50;1.35;;;20.20;52.70;;;;;;5105978;28;20048;-70
2022/05/08 08:09:47;;;;;;;2.95;1.35;;;21.20;52.50;;;;;;5098480;28;20056;-70
2022/05/08 08:12:14;;;;;;;3.20;1.40;;;20.80;52.40;;;;;;5099810;28;20048;-71
2022/05/08 08:14:40;;;;;;;2.97;1.35;;;20.50;47.40;;;;;;5103131;28;20074;-71
2022/05/08 08:17:08;;;;;;;3.42;1.38;;;20.60;53.20;;;;;;5096478;28;20048;-71
2022/05/08 08:19:36;;;;;;;1.90;1.23;;;20.80;52.30;;;;;;5097589;28;20054;-71
2022/05/08 08:22:03;;;;;;;3.13;1.40;;;20.60;47.40;;;;;;5102752;28;20456;-71
2022/05/08 08:24:29;;;;;;;2.85;1.30;;;20.60;52.20;;;;;;5097885;28;20146;-71
2022/05/08 08:26:56;;;;;;;4.82;1.40;;;20.80;52.40;;;;;;5104541;28;20127;-70
2022/05/08 08:29:23;;;;;;;3.72;1.30;;;20.40;51.60;;;;;;5104444;28;20408;-71
2022/05/08 08:31:50;;;;;;;3.08;1.25;;;21.30;52.20;;;;;;5107390;28;20055;-70
2022/05/08 08:34:16;;;;;;;2.60;1.40;;;21.10;52.80;;;;;;5101221;28;20132;-70
2022/05/08 08:36:44;;;;;;;4.20;1.40;;;20.60;51.90;;;;;;5103244;28;20044;-71
2022/05/08 08:39:11;;;;;;;2.08;1.10;;;19.90;51.50;;;;;;5103773;28;20053;-70
2022/05/08 08:41:38;;;;;;;3.05;1.45;;;21.30;53.30;;;;;;5106235;28;20048;-71
2022/05/08 08:49:51;;;;;;;1.73;1.13;;;20.60;52.10;;;;;;5095760;28;20052;-71
2022/05/08 08:52:19;;;;;;;3.67;1.20;;;20.10;51.20;;;;;;5098698;28;20048;-71
2022/05/08 08:54:46;;;;;;;4.88;1.02;;;;;;;;;;5082838;28;20051;-72
2022/05/08 08:57:13;;;;;;;3.25;1.20;;;20.90;51.90;;;;;;5091245;28;20066;-72
2022/05/08 08:59:39;;;;;;;2.35;1.15;;;21.10;52.20;;;;;;5099634;28;20058;-72
2022/05/08 09:02:15;;;;;;;2.55;1.30;;;20.70;51.80;;;;;;5099300;28;20484;-71
2022/05/08 09:04:41;;;;;;;2.83;1.33;;;20.60;51.90;;;;;;5099618;28;20051;-71
2022/05/08 09:07:23;;;;;;;3.30;1.63;;;20.70;52.00;;;;;;5104071;28;20052;-72
2022/05/08 09:09:49;;;;;;;3.47;1.52;;;20.80;52.00;;;;;;5095080;28;20044;-72
2022/05/08 09:12:17;;;;;;;2.83;1.35;;;21.00;51.80;;;;;;5107257;28;20060;-72
2022/05/08 09:14:43;;;;;;;2.75;1.30;;;20.60;51.80;;;;;;5096570;28;20049;-72
2022/05/08 09:17:10;;;;;;;2.13;1.02;;;20.30;51.40;;;;;;5098603;28;20056;-71
2022/05/08 09:19:38;;;;;;;5.15;1.17;;;21.40;52.30;;;;;;5099692;28;20059;-73
2022/05/08 09:22:05;;;;;;;3.35;1.23;;;21.00;51.90;;;;;;5109495;28;20052;-72
2022/05/08 09:24:33;;;;;;;2.88;1.30;;;20.90;47.20;;;;;;5100779;28;20054;-71
2022/05/08 09:27:11;;;;;;;2.92;1.30;;;20.60;52.20;;;;;;5100151;28;20058;-72
2022/05/08 09:29:38;;;;;;;2.13;1.02;;;20.40;51.40;;;;;;5095137;28;20093;-71
2022/05/08 09:32:06;;;;;;;3.47;1.20;;;20.90;47.20;;;;;;5100175;28;20048;-72
2022/05/08 09:34:49;;;;;;;3.45;1.20;;;20.90;47.20;;;;;;5107191;28;20478;-72
2022/05/08 09:37:16;;;;;;;3.65;1.65;;;20.80;53.60;;;;;;5105280;28;20138;-72
2022/05/08 09:39:45;;;;;;;2.53;1.20;;;20.30;51.00;;;;;;5099922;28;20436;-72
2022/05/08 09:42:35;;;;;;;2.60;1.13;;;21.00;52.50;;;;;;5108409;28;20054;-72
2022/05/08 09:45:07;;;;;;;3.35;1.15;;;20.90;52.80;;;;;;5100462;28;20062;-72
2022/05/08 09:47:43;;;;;;;3.72;1.35;;;20.60;51.20;;;;;;5088718;28;20062;-72
2022/05/08 09:50:10;;;;;;;3.10;1.35;;;20.80;51.70;;;;;;5098112;28;20568;-72
2022/05/08 09:52:38;;;;;;;2.63;1.30;;;20.90;47.30;;;;;;5104799;28;20047;-72
2022/05/08 09:55:07;;;;;;;3.15;1.25;;;20.80;47.20;;;;;;5103520;28;20467;-72
2022/05/08 09:57:34;;;;;;;3.50;1.23;;;20.50;51.20;;;;;;5103672;28;20043;-72
2022/05/08 10:00:01;;;;;;;4.57;1.20;;;20.60;51.90;;;;;;5104699;28;20062;-72
2022/05/08 10:02:27;;;;;;;2.63;1.30;;;20.80;47.30;;;;;;5102788;28;20046;-72
2022/05/08 10:04:54;;;;;;;2.63;1.13;;;21.30;53.50;;;;;;5103113;28;20054;-72
2022/05/08 10:07:21;;;;;;;1.88;1.23;;;21.20;52.20;;;;;;5101990;28;20511;-71
2022/05/08 10:15:17;;;;;;;;;;;20.80;47.30;;;;;;5103563;28;20101;-71
2022/05/08 10:17:44;;;;;;;2.95;1.23;;;20.70;47.50;;;;;;5104170;28;19919;-72
2022/05/08 10:20:11;;;;;;;4.80;1.40;;;20.40;51.90;;;;;;5102427;28;20048;-72
2022/05/08 10:22:48;;;;;;;3.35;1.48;;;20.90;51.70;;;;;;5102739;28;20127;-72
2022/05/08 10:25:15;;;;;;;3.35;1.55;;;21.20;52.10;;;;;;5101636;28;20050;-72
2022/05/08 10:27:50;;;;;;;2.53;1.30;;;20.30;52.10;;;;;;5097148;28;20505;-72
2022/05/08 10:30:25;;;;;;;2.92;1.35;;;20.60;52.00;;;;;;5101203;28;20063;-72
2022/05/08 10:32:52;;;;;;;3.15;1.42;;;20.60;51.70;;;;;;5101107;28;20411;-72
2022/05/08 10:35:20;;;;;;;2.63;1.38;;;20.40;53.20;;;;;;5096094;28;20101;-72
2022/05/08 10:37:47;;;;;;;2.38;1.20;;;20.60;51.80;;;;;;5099890;28;20054;-72
2022/05/08 10:40:31;;;;;;;2.55;1.40;;;20.60;53.70;;;;;;5099491;28;20481;-72
2022/05/08 10:43:00;;;;;;;2.25;1.33;;;20.50;53.90;;;;;;5103498;28;20076;-72
2022/05/08 10:45:41;;;;;;;5.45;1.50;;;20.30;51.90;;;;;;5102424;28;20058;-72
2022/05/08 10:48:12;;;;;;;2.38;1.20;;;20.60;54.10;;;;;;5101855;28;20454;-72
2022/05/08 10:50:40;;;;;;;2.25;1.20;;;21.30;52.10;;;;;;5103545;28;20047;-72
2022/05/08 10:53:07;;;;;;;4.05;1.35;;;20.50;52.60;;;;;;5098526;28;20051;-72
2022/05/08 10:55:34;;;;;;;3.33;1.23;;;20.50;47.60;;;;;;5103795;28;20503;-72
2022/05/08 10:58:02;;;;;;;3.97;1.30;;;20.60;47.70;;;;;;5102231;28;20060;-71
2022/05/08 11:00:29;;;;;;;4.07;1.50;;;20.10;51.40;;;;;;5101704;28;20047;-68
2022/05/08 11:02:56;;;;;;;2.63;1.10;;;20.50;51.70;;;;;;5103662;28;20123;-72
2022/05/08 11:05:24;;;;;;;4.93;1.40;;;20.40;52.10;;;;;;5100736;28;20462;-71
2022/05/08 11:07:51;;;;;;;2.58;1.20;;;19.70;51.30;;;;;;5102053;28;20040;-72
2022/05/08 11:10:18;;;;;;;2.25;1.35;;;20.20;51.70;;;;;;5101144;28;20070;-72
2022/05/08 11:12:59;;;;;;;2.80;1.40;;;20.50;47.60;;;;;;5102648;28;20047;-71
2022/05/08 11:15:27;;;;;;;5.25;1.45;;;20.70;51.50;;;;;;5102112;28;20076;-72
2022/05/08 11:18:08;;;;;;;2.92;1.30;;;20.70;52.00;;;;;;5102369;28;20051;-71
2022/05/08 11:20:36;;;;;;;4.13;1.52;;;20.00;52.80;;;;;;5093693;28;20046;-72
2022/05/08 11:23:03;;;;;;;4.55;1.50;;;20.60;52.00;;;;;;5097828;28;20051;-71
2022/05/08 11:25:30;;;;;;;4.90;1.30;;;20.40;52.20;;;;;;5097882;28;20052;-71
2022/05/08 11:27:58;;;;;;;3.35;1.30;;;20.50;51.80;;;;;;5098345;28;20046;-71
2022/05/08 11:30:30;;;;;;;4.20;1.70;;;20.50;52.10;;;;;;5105146;28;20060;-70
2022/05/08 11:38:32;;;;;;;3.00;1.50;;;20.60;51.90;;;;;;5090562;28;20047;-71
2022/05/08 11:40:59;;;;;;;3.67;1.48;;;20.60;52.70;;;;;;5101482;28;20039;-71
2022/05/08 11:43:43;;;;;;;5.05;1.50;;;21.00;52.10;;;;;;5097580;28;20399;-70
2022/05/08 11:46:15;;;;;;;4.32;1.40;;;20.50;47.60;;;;;;5102784;28;20058;-71
2022/05/08 11:48:42;;;;;;;4.55;1.60;;;20.20;52.10;;;;;;5102258;28;20076;-70
2022/05/08 11:51:09;;;;;;;3.63;1.40;;;20.20;52.70;;;;;;5101931;28;20062;-71
2022/05/08 11:53:43;;;;;;;2.75;1.23;;;20.30;51.70;;;;;;5106036;28;20043;-70
2022/05/08 11:56:23;;;;;;;4.25;1.30;;;20.50;54.90;;;;;;5098282;28;20043;-71
2022/05/08 11:58:50;;;;;;;13.85;1.90;;;20.40;47.60;;;;;;5102066;28;20043;-70
2022/05/08 12:01:25;;;;;;;11.63;2.20;;;20.50;52.20;;;;;;5104736;28;20054;-71
2022/05/08 12:03:52;;;;;;;;;;;20.40;47.60;;;;;;5103192;28;20044;-71
2022/05/08 12:06:18;;;;;;;5.10;2.15;;;20.50;52.40;;;;;;5100465;28;19919;-70
2022/05/08 12:08:45;;;;;;;5.80;2.10;;;20.40;47.80;;;;;;5093771;28;20123;-70
2022/05/08 12:11:33;;;;;;;5.90;2.08;;;19.50;51.40;;;;;;5108479;28;20054;-70
2022/05/08 12:14:04;;;;;;;8.38;2.00;;;20.10;53.00;;;;;;5099168;28;20370;-71
2022/05/08 12:16:34;;;;;;;5.97;1.95;;;19.70;51.60;;;;;;5095359;28;20048;-71
2022/05/08 12:19:15;;;;;;;4.60;2.00;;;20.10;51.60;;;;;;5102621;28;20048;-71
2022/05/08 12:21:43;;;;;;;7.70;2.78;;;20.50;52.30;;;;;;5097158;28;20097;-71
2022/05/08 12:24:14;;;;;;;9.50;2.35;;;20.10;52.50;;;;;;5099230;28;20432;-72
2022/05/08 12:26:41;;;;;;;10.45;2.25;;;20.10;52.00;;;;;;5105592;28;20055;-72
2022/05/08 12:29:15;;;;;;;5.53;1.95;;;20.30;53.60;;;;;;5104370;28;20058;-71
2022/05/08 12:31:43;;;;;;;6.95;1.90;;;20.40;51.90;;;;;;5102325;28;20050;-72
2022/05/08 12:34:11;;;;;;;5.07;1.85;;;20.30;52.50;;;;;;5106888;28;20135;-71
2022/05/08 12:36:40;;;;;;;5.95;1.80;;;19.90;52.30;;;;;;5104650;28;20051;-71
2022/05/08 12:39:06;;;;;;;7.65;2.13;;;20.10;52.50;;;;;;5105777;28;20523;-72
2022/05/08 12:41:34;;;;;;;6.38;1.98;;;20.30;48.00;;;;;;5104853;28;20047;-71
2022/05/08 12:44:00;;;;;;;5.10;2.00;;;20.30;52.80;;;;;;5106255;28;20040;-72
2022/05/08 12:46:27;;;;;;;5.22;1.80;;;20.70;52.30;;;;;;5101579;28;20052;-74
2022/05/08 12:49:01;;;;;;;4.50;1.70;;;20.20;47.90;;;;;;5093331;28;20045;-73
2022/05/08 12:51:28;;;;;;;4.85;1.70;;;20.30;52.20;;;;;;5074824;28;20124;-72
2022/05/08 12:53:55;;;;;;;3.70;1.70;;;20.30;52.30;;;;;;5073409;28;20058;-73
2022/05/08 12:56:22;;;;;;;3.95;1.77;;;19.40;51.90;;;;;;5073609;28;20072;-72
2022/05/08 13:01:33;;;;;;;8.27;1.63;;;20.20;47.70;;;;;;5107087;27;20048;-73
2022/05/08 13:04:03;;;;;;;4.40;2.15;;;20.20;47.60;;;;;;5072056;28;20411;-71
2022/05/08 13:06:30;;;;;;;5.53;1.98;;;20.40;53.30;;;;;;5079635;28;20547;-71
2022/05/08 13:08:57;;;;;;;4.13;1.70;;;20.20;52.90;;;;;;5098557;28;20048;-71
2022/05/08 13:11:23;;;;;;;3.72;1.77;;;20.40;52.30;;;;;;5102453;28;20050;-71
2022/05/08 13:13:50;;;;;;;3.15;1.55;;;20.30;48.30;;;;;;5104668;28;20050;-71
2022/05/08 13:16:17;;;;;;;6.13;1.92;;;19.40;52.10;;;;;;5104608;28;20488;-71
2022/05/08 13:18:44;;;;;;;8.30;1.60;;;20.80;54.00;;;;;;5105169;28;20054;-72
2022/05/08 13:21:14;;;;;;;6.80;1.58;;;20.20;52.50;;;;;;5104383;28;20043;-70
2022/05/08 13:23:41;;;;;;;5.28;1.77;;;20.30;48.30;;;;;;5097539;28;20047;-70
2022/05/08 13:26:07;;;;;;;5.53;1.50;;;20.40;53.10;;;;;;5090993;28;20052;-71
2022/05/08 13:28:34;;;;;;;3.78;1.60;;;20.60;52.70;;;;;;5096155;28;20053;-71
2022/05/08 13:31:01;;;;;;;4.20;1.60;;;20.20;52.50;;;;;;5096666;28;20503;-71
2022/05/08 13:33:28;;;;;;;3.83;1.40;;;20.40;52.50;;;;;;5101897;28;20401;-71